createdAt,value
2023-05-09T00:01:46.924Z,19.73
2023-05-09T00:04:16.034Z,15.38
2023-05-09T00:06:43.681Z,15.23
2023-05-09T00:09:11.425Z,14.90
2023-05-09T00:11:40.191Z,17.87
2023-05-09T00:14:07.858Z,15.68
2023-05-09T00:16:36.801Z,15.68
2023-05-09T00:19:05.900Z,16.08
2023-05-09T00:21:34.192Z,19.45
2023-05-09T00:24:02.163Z,15.07
2023-05-09T00:26:29.703Z,16.02
2023-05-09T00:28:57.190Z,14.90
2023-05-09T00:31:24.948Z,16.05
2023-05-09T00:33:52.531Z,17.10
2023-05-09T00:36:21.425Z,14.87
2023-05-09T00:38:49.105Z,13.18
2023-05-09T00:41:16.670Z,15.32
2023-05-09T00:43:44.256Z,12.80
2023-05-09T00:46:11.926Z,13.90
2023-05-09T00:48:39.452Z,11.50
2023-05-09T00:51:07.103Z,12.63
2023-05-09T00:53:36.321Z,12.80
2023-05-09T00:56:04.831Z,14.25
2023-05-09T00:58:32.492Z,14.93
2023-05-09T01:01:02.268Z,16.77
2023-05-09T01:03:30.118Z,14.68
2023-05-09T01:06:04.241Z,13.98
2023-05-09T01:08:38.662Z,16.35
2023-05-09T01:11:11.883Z,13.63
2023-05-09T01:13:42.440Z,15.90
2023-05-09T01:16:15.583Z,13.82
2023-05-09T01:18:44.806Z,17.70
2023-05-09T01:21:14.749Z,12.90
2023-05-09T01:24:00.850Z,12.95
2023-05-09T01:26:37.591Z,13.37
2023-05-09T01:29:33.150Z,11.77
2023-05-09T01:32:02.635Z,10.73
2023-05-09T01:34:31.626Z,11.85
2023-05-09T01:37:00.808Z,13.70
2023-05-09T01:39:29.350Z,10.53
2023-05-09T01:41:58.800Z,9.50
2023-05-09T01:44:26.612Z,12.30
2023-05-09T01:46:57.262Z,13.75
2023-05-09T01:52:12.620Z,12.10
2023-05-09T01:54:41.350Z,11.10
2023-05-09T01:57:09.200Z,10.43
2023-05-09T01:59:37.038Z,16.75
2023-05-09T02:02:06.983Z,12.13
2023-05-09T02:04:35.618Z,14.70
2023-05-09T02:07:03.805Z,9.02
2023-05-09T02:09:31.510Z,8.75
2023-05-09T02:11:59.097Z,8.85
2023-05-09T02:14:26.799Z,8.70
2023-05-09T02:16:54.958Z,6.57
2023-05-09T02:19:23.886Z,8.73
2023-05-09T02:21:51.516Z,8.02
2023-05-09T02:24:20.721Z,7.72
2023-05-09T02:26:48.736Z,8.43
2023-05-09T02:29:17.750Z,9.27
2023-05-09T02:31:46.032Z,8.10
2023-05-09T02:34:14.346Z,7.75
2023-05-09T02:36:44.570Z,6.53
2023-05-09T02:39:12.263Z,9.82
2023-05-09T02:41:39.783Z,7.33
2023-05-09T02:44:07.485Z,7.82
2023-05-09T02:46:35.087Z,8.27
2023-05-09T02:49:02.659Z,6.25
2023-05-09T02:51:30.572Z,5.07
2023-05-09T02:53:59.501Z,9.03
2023-05-09T02:56:27.044Z,6.75
2023-05-09T02:58:54.690Z,7.80
2023-05-09T03:01:22.390Z,8.90
2023-05-09T03:03:49.987Z,7.43
2023-05-09T03:06:17.644Z,7.07
2023-05-09T03:08:45.602Z,6.88
2023-05-09T03:11:15.111Z,5.97
2023-05-09T03:13:42.693Z,7.60
2023-05-09T03:16:11.992Z,6.30
2023-05-09T03:18:39.967Z,6.50
2023-05-09T03:21:07.662Z,8.27
2023-05-09T03:23:35.580Z,9.55
2023-05-09T03:26:03.103Z,8.18
2023-05-09T03:28:32.420Z,10.13
2023-05-09T03:31:00.238Z,7.60
2023-05-09T03:33:27.881Z,7.82
2023-05-09T03:35:55.487Z,7.38
2023-05-09T03:38:24.348Z,8.75
2023-05-09T03:40:52.079Z,9.85
2023-05-09T03:43:19.666Z,8.70
2023-05-09T03:45:48.632Z,7.60
2023-05-09T03:48:16.264Z,8.05
2023-05-09T03:50:43.864Z,7.40
2023-05-09T03:53:11.429Z,7.57
2023-05-09T03:55:39.911Z,7.33
2023-05-09T03:58:07.840Z,9.18
2023-05-09T04:00:35.537Z,7.38
2023-05-09T04:03:05.469Z,7.22
2023-05-09T04:05:35.405Z,6.80
2023-05-09T04:08:03.055Z,9.03
2023-05-09T04:10:31.653Z,7.13
2023-05-09T04:12:59.257Z,8.25
2023-05-09T04:15:26.939Z,8.75
2023-05-09T04:17:54.672Z,7.25
2023-05-09T04:20:24.737Z,9.10
2023-05-09T04:22:52.295Z,9.10
2023-05-09T04:25:20.234Z,8.70
2023-05-09T04:27:48.324Z,8.25
2023-05-09T04:30:16.385Z,9.10
2023-05-09T04:32:46.858Z,8.43
2023-05-09T04:35:16.104Z,6.93
2023-05-09T04:37:47.220Z,8.95
2023-05-09T04:40:14.751Z,6.78
2023-05-09T04:42:42.436Z,8.57
2023-05-09T04:45:11.712Z,11.23
2023-05-09T04:47:39.386Z,8.68
2023-05-09T04:50:10.875Z,11.20
2023-05-09T04:52:38.499Z,9.30
2023-05-09T04:55:08.064Z,10.27
2023-05-09T04:57:35.727Z,7.77
2023-05-09T05:00:03.644Z,10.10
2023-05-09T05:02:31.696Z,10.40
2023-05-09T05:05:10.887Z,7.65
2023-05-09T05:07:40.511Z,12.32
2023-05-09T05:10:10.377Z,8.47
2023-05-09T05:12:37.901Z,10.88
2023-05-09T05:15:06.001Z,8.40
2023-05-09T05:17:33.598Z,9.27
2023-05-09T05:20:01.307Z,11.25
2023-05-09T05:22:30.355Z,7.47
2023-05-09T05:24:59.852Z,11.05
2023-05-09T05:27:28.753Z,6.25
2023-05-09T05:29:56.401Z,8.45
2023-05-09T05:32:24.177Z,11.18
2023-05-09T05:34:51.734Z,10.23
2023-05-09T05:37:19.327Z,8.30
2023-05-09T05:39:47.219Z,14.35
2023-05-09T05:42:14.689Z,10.02
2023-05-09T05:44:43.640Z,9.32
2023-05-09T05:47:11.261Z,8.23
2023-05-09T05:49:39.289Z,10.50
2023-05-09T05:52:06.953Z,8.68
2023-05-09T05:54:34.708Z,9.13
2023-05-09T05:57:02.529Z,12.63
2023-05-09T05:59:30.116Z,14.03
2023-05-09T06:01:59.382Z,10.90
2023-05-09T06:04:28.303Z,12.02
2023-05-09T06:06:56.045Z,11.27
2023-05-09T06:09:23.667Z,13.07
2023-05-09T06:11:55.276Z,13.57
2023-05-09T06:14:22.922Z,9.85
2023-05-09T06:16:50.595Z,13.45
2023-05-09T06:19:19.783Z,11.32
2023-05-09T06:21:48.130Z,14.45
2023-05-09T06:24:27.457Z,12.00
2023-05-09T06:27:02.750Z,12.65
2023-05-09T06:29:30.380Z,11.05
2023-05-09T06:31:57.934Z,10.80
2023-05-09T06:34:26.998Z,11.27
2023-05-09T06:36:54.656Z,14.60
2023-05-09T06:39:22.261Z,10.10
2023-05-09T06:41:49.918Z,12.02
2023-05-09T06:44:17.681Z,15.82
2023-05-09T06:46:45.622Z,13.07
2023-05-09T06:49:14.980Z,13.77
2023-05-09T06:51:46.587Z,16.48
2023-05-09T06:54:15.087Z,13.68
2023-05-09T06:56:42.588Z,15.70
2023-05-09T06:59:13.318Z,14.25
2023-05-09T07:01:41.381Z,15.73
2023-05-09T07:04:09.040Z,17.48
2023-05-09T07:06:36.768Z,14.82
2023-05-09T07:09:06.213Z,15.93
2023-05-09T07:11:35.419Z,13.80
2023-05-09T07:14:03.116Z,17.20
2023-05-09T07:16:30.937Z,17.77
2023-05-09T07:18:58.494Z,17.98
2023-05-09T07:21:26.210Z,19.63
2023-05-09T07:23:53.814Z,16.35
2023-05-09T07:26:22.682Z,18.63
2023-05-09T07:28:50.497Z,18.92
2023-05-09T07:31:18.227Z,18.50
2023-05-09T07:33:45.933Z,20.77
2023-05-09T07:36:14.793Z,17.65
2023-05-09T07:38:42.676Z,22.93
2023-05-09T07:41:10.359Z,20.15
2023-05-09T07:43:39.372Z,12.43
2023-05-09T07:46:07.088Z,16.55
2023-05-09T07:48:34.910Z,16.85
2023-05-09T07:51:02.399Z,14.17
2023-05-09T07:53:30.051Z,14.27
2023-05-09T07:55:58.737Z,15.30
2023-05-09T07:58:26.292Z,12.57
2023-05-09T08:00:56.206Z,10.43
2023-05-09T08:03:24.010Z,11.27
2023-05-09T08:05:54.163Z,10.85
2023-05-09T08:08:22.401Z,10.65
2023-05-09T08:10:50.202Z,9.70
2023-05-09T08:13:19.019Z,8.63
2023-05-09T08:15:47.544Z,8.20
2023-05-09T08:18:16.581Z,8.68
2023-05-09T08:20:44.289Z,9.05
2023-05-09T08:23:11.869Z,11.93
2023-05-09T08:25:39.472Z,10.77
2023-05-09T08:28:07.054Z,9.90
2023-05-09T08:30:34.695Z,8.88
2023-05-09T08:33:02.654Z,7.85
2023-05-09T08:35:31.554Z,8.82
2023-05-09T08:37:59.638Z,9.75
2023-05-09T08:40:27.219Z,8.23
2023-05-09T08:42:55.143Z,11.88
2023-05-09T08:45:27.244Z,11.57
2023-05-09T08:47:55.062Z,10.02
2023-05-09T08:50:23.353Z,11.45
2023-05-09T08:52:52.642Z,12.10
2023-05-09T08:55:20.209Z,15.05
2023-05-09T08:57:48.412Z,11.93
2023-05-09T09:00:20.266Z,16.83
2023-05-09T09:02:48.981Z,12.27
2023-05-09T09:05:39.469Z,12.30
2023-05-09T09:08:07.789Z,13.77
2023-05-09T09:10:35.458Z,15.85
2023-05-09T09:13:04.908Z,16.10
2023-05-09T09:15:36.029Z,14.05
2023-05-09T09:18:09.568Z,12.27
2023-05-09T09:20:38.486Z,15.27
2023-05-09T09:23:10.520Z,13.30
2023-05-09T09:25:38.319Z,12.60
2023-05-09T09:28:06.524Z,11.43
2023-05-09T09:30:34.265Z,9.93
2023-05-09T09:33:03.887Z,8.98
2023-05-09T09:35:39.244Z,7.65
2023-05-09T09:38:08.346Z,7.50
2023-05-09T09:40:39.223Z,5.93
2023-05-09T09:43:07.981Z,5.90
2023-05-09T09:45:36.360Z,7.13
2023-05-09T09:48:07.474Z,5.03
2023-05-09T09:50:35.408Z,7.05
2023-05-09T09:53:03.567Z,4.88
2023-05-09T09:55:32.689Z,7.20
2023-05-09T09:58:00.414Z,5.93
2023-05-09T10:00:28.612Z,5.40
2023-05-09T10:02:57.017Z,6.30
2023-05-09T10:05:25.663Z,8.13
2023-05-09T10:07:55.595Z,5.70
2023-05-09T10:10:23.702Z,6.97
2023-05-09T10:12:55.057Z,6.75
2023-05-09T10:15:23.012Z,6.63
2023-05-09T10:17:54.121Z,7.95
2023-05-09T10:20:22.107Z,6.53
2023-05-09T10:22:50.122Z,8.18
2023-05-09T10:25:20.497Z,5.30
2023-05-09T10:27:49.152Z,4.30
2023-05-09T10:30:20.334Z,6.20
2023-05-09T10:32:50.035Z,3.27
2023-05-09T10:35:18.070Z,3.40
2023-05-09T10:37:47.483Z,4.20
2023-05-09T10:40:16.624Z,4.78
2023-05-09T10:42:45.962Z,6.28
2023-05-09T10:45:14.346Z,7.17
2023-05-09T10:47:44.865Z,5.00
2023-05-09T10:50:13.804Z,6.13
2023-05-09T10:53:00.528Z,4.55
2023-05-09T10:55:36.503Z,6.63
2023-05-09T10:58:19.657Z,3.80
2023-05-09T11:00:48.077Z,7.05
2023-05-09T11:03:19.166Z,5.35
2023-05-09T11:05:47.604Z,3.83
2023-05-09T11:08:22.085Z,6.30
2023-05-09T11:10:49.916Z,5.47
2023-05-09T11:13:21.322Z,3.83
2023-05-09T11:15:52.813Z,4.72
2023-05-09T11:18:22.065Z,4.55
2023-05-09T11:20:51.341Z,4.32
2023-05-09T11:23:19.825Z,4.03
2023-05-09T11:25:48.340Z,3.88
2023-05-09T11:28:28.258Z,3.50
2023-05-09T11:31:09.424Z,2.55
2023-05-09T11:33:40.524Z,4.32
2023-05-09T11:36:27.954Z,3.17
2023-05-09T11:39:03.048Z,3.90
2023-05-09T11:41:30.869Z,2.83
2023-05-09T11:43:59.539Z,2.85
2023-05-09T11:46:27.677Z,3.45
2023-05-09T11:48:57.948Z,3.00
2023-05-09T11:51:26.874Z,3.67
2023-05-09T11:53:55.105Z,3.25
2023-05-09T11:56:23.966Z,2.70
2023-05-09T11:58:52.075Z,3.38
2023-05-09T12:01:20.214Z,2.67
2023-05-09T12:03:49.418Z,3.03
2023-05-09T12:06:19.186Z,4.88
2023-05-09T12:08:47.838Z,3.17
2023-05-09T12:11:16.034Z,5.00
2023-05-09T12:13:48.460Z,4.00
2023-05-09T12:16:16.708Z,4.28
2023-05-09T12:18:48.767Z,3.00
2023-05-09T12:24:03.429Z,4.25
2023-05-09T12:26:31.228Z,3.00
2023-05-09T12:28:59.051Z,2.97
2023-05-09T12:31:27.076Z,2.85
2023-05-09T12:33:54.689Z,4.30
2023-05-09T12:36:22.283Z,4.88
2023-05-09T12:38:54.023Z,2.70
2023-05-09T12:41:36.849Z,4.55
2023-05-09T12:44:08.775Z,2.70
2023-05-09T12:46:37.547Z,2.65
2023-05-09T12:49:05.448Z,3.25
2023-05-09T12:51:33.231Z,4.57
2023-05-09T12:54:04.153Z,3.58
2023-05-09T12:56:36.375Z,2.78
2023-05-09T12:59:04.128Z,3.28
2023-05-09T13:01:31.947Z,5.90
2023-05-09T13:04:03.764Z,3.40
2023-05-09T13:06:31.792Z,3.13
2023-05-09T13:09:01.551Z,2.90
2023-05-09T13:11:29.953Z,3.60
2023-05-09T13:13:59.519Z,2.30
2023-05-09T13:16:27.209Z,2.87
2023-05-09T13:18:54.899Z,3.38
2023-05-09T13:21:22.792Z,2.30
2023-05-09T13:23:51.241Z,2.33
2023-05-09T13:26:19.938Z,1.83
2023-05-09T13:28:48.325Z,3.30
2023-05-09T13:31:17.718Z,2.40
2023-05-09T13:33:45.957Z,2.53
2023-05-09T13:36:16.103Z,2.17
2023-05-09T13:38:46.069Z,2.45
2023-05-09T13:41:19.936Z,3.07
2023-05-09T13:43:48.174Z,3.33
2023-05-09T13:46:17.215Z,2.83
2023-05-09T13:48:44.974Z,2.60
2023-05-09T13:51:12.783Z,2.88
2023-05-09T13:53:40.497Z,2.53
2023-05-09T13:56:09.291Z,2.38
2023-05-09T13:58:37.197Z,2.67
2023-05-09T14:01:04.975Z,1.98
2023-05-09T14:03:33.998Z,2.47
2023-05-09T14:06:01.906Z,2.97
2023-05-09T14:08:29.607Z,3.65
2023-05-09T14:10:57.276Z,2.67
2023-05-09T14:13:25.252Z,2.05
2023-05-09T14:15:52.941Z,2.60
2023-05-09T14:18:21.240Z,2.40
2023-05-09T14:20:51.039Z,2.22
2023-05-09T14:23:19.291Z,2.40
2023-05-09T14:25:47.094Z,3.42
2023-05-09T14:28:15.934Z,2.70
2023-05-09T14:30:43.760Z,3.70
2023-05-09T14:33:11.831Z,2.65
2023-05-09T14:35:41.491Z,4.43
2023-05-09T14:38:12.429Z,3.35
2023-05-09T14:40:40.167Z,2.92
2023-05-09T14:43:09.499Z,3.27
2023-05-09T14:45:37.052Z,2.13
2023-05-09T14:48:05.378Z,3.80
2023-05-09T14:50:33.461Z,2.45
2023-05-09T14:53:02.060Z,2.63
2023-05-09T14:55:31.542Z,2.90
2023-05-09T14:57:59.469Z,2.63
2023-05-09T15:00:28.806Z,3.15
2023-05-09T15:02:57.206Z,2.75
2023-05-09T15:05:25.095Z,2.35
2023-05-09T15:07:52.693Z,4.10
2023-05-09T15:10:20.769Z,2.70
2023-05-09T15:12:50.439Z,2.97
2023-05-09T15:15:18.783Z,2.65
2023-05-09T15:17:47.232Z,3.00
2023-05-09T15:20:16.326Z,3.07
2023-05-09T15:22:44.199Z,2.35
2023-05-09T15:25:12.465Z,2.15
2023-05-09T15:27:40.481Z,3.47
2023-05-09T15:30:10.572Z,3.92
2023-05-09T15:32:41.651Z,4.70
2023-05-09T15:35:09.753Z,3.92
2023-05-09T15:37:37.914Z,5.03
2023-05-09T15:40:06.146Z,3.38
2023-05-09T15:42:34.935Z,3.05
2023-05-09T15:45:03.716Z,2.47
2023-05-09T15:47:32.811Z,3.45
2023-05-09T15:50:00.591Z,5.05
2023-05-09T15:52:28.154Z,4.70
2023-05-09T15:54:56.285Z,3.80
2023-05-09T15:57:24.924Z,5.43
2023-05-09T15:59:54.392Z,5.05
2023-05-09T16:02:22.477Z,7.18
2023-05-09T16:04:51.685Z,6.53
2023-05-09T16:07:20.413Z,3.60
2023-05-09T16:09:48.461Z,2.00
2023-05-09T16:12:16.137Z,4.28
2023-05-09T16:14:43.875Z,4.22
2023-05-09T16:17:12.589Z,5.60
2023-05-09T16:19:40.994Z,2.78
2023-05-09T16:22:09.900Z,2.77
2023-05-09T16:24:38.472Z,4.80
2023-05-09T16:27:06.852Z,2.92
2023-05-09T16:29:35.389Z,3.28
2023-05-09T16:32:03.462Z,2.78
2023-05-09T16:34:32.093Z,6.33
2023-05-09T16:37:00.645Z,2.67
2023-05-09T16:39:31.657Z,3.97
2023-05-09T16:41:59.711Z,3.72
2023-05-09T16:44:27.486Z,2.63
2023-05-09T16:46:55.289Z,4.03
2023-05-09T16:49:23.429Z,3.03
2023-05-09T16:51:50.943Z,4.18
2023-05-09T16:54:18.731Z,2.72
2023-05-09T16:56:48.152Z,3.25
2023-05-09T16:59:15.712Z,5.53
2023-05-09T17:01:43.512Z,7.00
2023-05-09T17:04:11.255Z,4.97
2023-05-09T17:06:38.931Z,3.90
2023-05-09T17:09:07.673Z,4.18
2023-05-09T17:11:35.396Z,3.07
2023-05-09T17:14:04.387Z,4.40
2023-05-09T17:16:32.036Z,4.15
2023-05-09T17:18:59.768Z,3.20
2023-05-09T17:21:27.720Z,2.67
2023-05-09T17:23:55.398Z,2.97
2023-05-09T17:26:23.254Z,3.55
2023-05-09T17:28:50.765Z,3.88
2023-05-09T17:31:20.001Z,2.25
2023-05-09T17:33:49.425Z,3.47
2023-05-09T17:36:17.712Z,2.77
2023-05-09T17:38:45.912Z,3.03
2023-05-09T17:41:13.685Z,2.78
2023-05-09T17:43:41.159Z,2.35
2023-05-09T17:46:08.778Z,4.57
2023-05-09T17:48:38.438Z,2.13
2023-05-09T17:51:06.028Z,3.55
2023-05-09T17:53:33.561Z,4.00
2023-05-09T17:56:01.325Z,5.22
2023-05-09T17:58:29.950Z,4.65
2023-05-09T18:00:59.483Z,4.50
2023-05-09T18:03:28.677Z,3.92
2023-05-09T18:05:57.936Z,6.28
2023-05-09T18:08:25.914Z,4.18
2023-05-09T18:10:54.629Z,3.75
2023-05-09T18:13:26.289Z,3.33
2023-05-09T18:15:55.186Z,4.72
2023-05-09T18:18:23.180Z,4.60
2023-05-09T18:20:50.729Z,3.03
2023-05-09T18:23:19.682Z,2.70
2023-05-09T18:25:49.836Z,3.20
2023-05-09T18:28:23.102Z,2.65
2023-05-09T18:30:50.826Z,5.15
2023-05-09T18:33:18.326Z,4.40
2023-05-09T18:35:46.271Z,2.67
2023-05-09T18:38:14.055Z,2.37
2023-05-09T18:40:43.197Z,3.30
2023-05-09T18:43:10.839Z,3.42
2023-05-09T18:45:44.966Z,2.17
2023-05-09T18:48:12.948Z,3.80
2023-05-09T18:50:41.195Z,3.57
2023-05-09T18:53:09.022Z,4.43
2023-05-09T18:55:36.601Z,4.00
2023-05-09T18:58:05.757Z,3.10
2023-05-09T19:00:34.165Z,4.18
2023-05-09T19:03:02.197Z,5.20
2023-05-09T19:05:29.953Z,2.25
2023-05-09T19:07:57.723Z,2.88
2023-05-09T19:10:25.612Z,2.67
2023-05-09T19:12:53.404Z,4.57
2023-05-09T19:18:08.909Z,4.55
2023-05-09T19:20:36.914Z,3.72
2023-05-09T19:23:04.508Z,4.15
2023-05-09T19:25:33.871Z,3.13
2023-05-09T19:28:01.704Z,3.43
2023-05-09T19:30:30.689Z,2.85
2023-05-09T19:32:58.522Z,3.45
2023-05-09T19:35:26.673Z,4.03
2023-05-09T19:37:54.260Z,2.83
2023-05-09T19:40:22.508Z,3.93
2023-05-09T19:42:50.073Z,5.63
2023-05-09T19:45:17.713Z,3.75
2023-05-09T19:47:47.174Z,5.72
2023-05-09T19:50:15.155Z,3.60
2023-05-09T19:52:43.359Z,3.50
2023-05-09T19:55:11.230Z,5.93
2023-05-09T19:57:38.915Z,3.25
2023-05-09T20:00:07.232Z,4.63
2023-05-09T20:02:35.039Z,5.53
2023-05-09T20:05:04.626Z,4.50
2023-05-09T20:07:32.193Z,4.47
2023-05-09T20:09:59.932Z,7.53
2023-05-09T20:12:29.932Z,7.20
2023-05-09T20:14:57.919Z,6.07
2023-05-09T20:17:25.825Z,5.13
2023-05-09T20:19:53.490Z,7.05
2023-05-09T20:22:22.471Z,4.93
2023-05-09T20:24:50.344Z,8.35
2023-05-09T20:27:18.681Z,3.65
2023-05-09T20:29:46.442Z,7.80
2023-05-09T20:32:14.654Z,7.22
2023-05-09T20:34:42.605Z,5.65
2023-05-09T20:37:10.162Z,6.63
2023-05-09T20:39:39.287Z,10.40
2023-05-09T20:42:07.156Z,6.97
2023-05-09T20:44:34.748Z,5.15
2023-05-09T20:47:02.732Z,4.97
2023-05-09T20:49:30.365Z,6.10
2023-05-09T20:51:58.028Z,5.93
2023-05-09T20:54:25.979Z,6.87
2023-05-09T20:56:54.897Z,6.05
2023-05-09T20:59:22.532Z,5.07
2023-05-09T21:01:52.289Z,7.53
2023-05-09T21:04:20.239Z,6.57
2023-05-09T21:06:48.578Z,8.87
2023-05-09T21:09:16.349Z,4.65
2023-05-09T21:11:44.859Z,6.63
2023-05-09T21:14:13.796Z,5.32
2023-05-09T21:16:43.894Z,5.13
2023-05-09T21:19:11.837Z,8.40
2023-05-09T21:21:39.578Z,7.60
2023-05-09T21:24:09.210Z,5.25
2023-05-09T21:26:37.252Z,8.30
2023-05-09T21:29:05.388Z,6.72
2023-05-09T21:31:35.835Z,8.53
2023-05-09T21:34:10.006Z,11.57
2023-05-09T21:36:38.508Z,6.13
2023-05-09T21:39:09.113Z,8.05
2023-05-09T21:41:36.832Z,7.63
2023-05-09T21:44:04.939Z,7.37
2023-05-09T21:46:34.826Z,4.75
2023-05-09T21:49:02.886Z,6.05
2023-05-09T21:51:31.612Z,8.18
2023-05-09T21:53:59.168Z,8.70
2023-05-09T21:56:26.917Z,10.60
2023-05-09T21:58:54.839Z,10.27
2023-05-09T22:01:22.418Z,6.30
2023-05-09T22:03:51.615Z,6.95
2023-05-09T22:06:19.461Z,6.90
2023-05-09T22:08:47.032Z,6.60
2023-05-09T22:11:15.254Z,6.07
2023-05-09T22:13:47.288Z,7.22
2023-05-09T22:16:15.062Z,8.95
2023-05-09T22:18:42.610Z,5.85
2023-05-09T22:21:11.663Z,12.80
2023-05-09T22:23:39.942Z,9.90
2023-05-09T22:26:07.536Z,7.00
2023-05-09T22:28:35.362Z,7.75
2023-05-09T22:31:03.410Z,6.55
2023-05-09T22:33:30.981Z,6.90
2023-05-09T22:35:58.578Z,7.60
2023-05-09T22:38:28.026Z,8.43
2023-05-09T22:40:55.764Z,8.73
2023-05-09T22:43:25.420Z,11.02
2023-05-09T22:45:56.451Z,7.10
2023-05-09T22:48:24.116Z,9.95
2023-05-09T22:50:51.793Z,12.98
2023-05-09T22:53:20.028Z,9.70
2023-05-09T22:55:50.845Z,10.77
2023-05-09T22:58:18.471Z,9.17
2023-05-09T23:00:46.079Z,11.40
2023-05-09T23:03:13.845Z,9.20
2023-05-09T23:05:41.590Z,9.60
2023-05-09T23:08:09.340Z,11.38
2023-05-09T23:10:36.827Z,11.37
2023-05-09T23:13:06.063Z,12.25
2023-05-09T23:15:34.305Z,12.60
2023-05-09T23:18:01.913Z,16.25
2023-05-09T23:20:29.589Z,11.65
2023-05-09T23:22:57.233Z,14.87
2023-05-09T23:25:24.716Z,17.30
2023-05-09T23:27:54.368Z,16.88
2023-05-09T23:30:23.408Z,15.82
2023-05-09T23:32:51.005Z,15.50
2023-05-09T23:35:19.340Z,14.10
2023-05-09T23:37:47.405Z,17.00
2023-05-09T23:40:15.413Z,15.70
2023-05-09T23:42:43.286Z,16.63
2023-05-09T23:45:11.286Z,13.25
2023-05-09T23:47:40.304Z,20.70
2023-05-09T23:50:08.637Z,17.17
2023-05-09T23:52:36.280Z,15.73
2023-05-09T23:55:03.860Z,17.17
2023-05-09T23:57:31.700Z,11.27
2023-05-09T23:59:59.652Z,10.53
